^^
Meteo Knjazevac Station Historical Data
Daily Summary for April 10, 2022 Units:  Both    English   Metric
Daily Weekly Monthly Yearly Custom
  High: Low: Average:
Temperature: 80.4 °F /  26.9 °C 65.8 °F /  18.8 °C 70.2 °F /  21.2 °C
Dew Point: 70.2 °F /  21.2 °C 62.3 °F /  16.8 °C 65.4 °F /  18.6 °C
Humidity: 94% 69% 85%
Wind Speed: 3mph /  4.8km/h - 1.1mph /  1.8km/h
Wind Gust: 9mph /  14.5km/h - -
Wind- - SSW
Pressure: 30.12 in /  1019.9 hPa 30.09 in /  1018.8 hPa -
Precipitation: 0.00 in /  0 mm    
Historical Graphs
 
 
Tabular Data for April 10, 2022
Time Temperature Dew Point Pressure Wind Wind Speed Wind Gust Humidity Rainfall Rate (Hourly) solar Conditions
00:00 68.7 °F /  20.4 °C 62.7 °F /  17.1 °C 30.09in /  1018.8hPa SW 2mph /  3.2km/h 3mph /  4.8km/h 81% 0.00in /  0mm 0 W/m2
00:05 68.5 °F /  20.3 °C 62.5 °F /  16.9 °C 30.09in /  1018.8hPa SW 2mph /  3.2km/h 3mph /  4.8km/h 81% 0.00in /  0mm 0 W/m2
00:10 68.4 °F /  20.2 °C 62.3 °F /  16.8 °C 30.09in /  1018.8hPa SW 1mph /  1.6km/h 2mph /  3.2km/h 81% 0.00in /  0mm 0 W/m2
00:15 68.4 °F /  20.2 °C 63 °F /  17.2 °C 30.09in /  1018.8hPa SW 1mph /  1.6km/h 2mph /  3.2km/h 83% 0.00in /  0mm 0 W/m2
00:20 68.2 °F /  20.1 °C 62.8 °F /  17.1 °C 30.09in /  1018.8hPa WSW 1mph /  1.6km/h 2mph /  3.2km/h 83% 0.00in /  0mm 0 W/m2
00:25 68.2 °F /  20.1 °C 62.8 °F /  17.1 °C 30.09in /  1018.8hPa Calm   2mph /  3.2km/h 83% 0.00in /  0mm 0 W/m2
00:35 68.7 °F /  20.4 °C 63.3 °F /  17.4 °C 30.10in /  1019.2hPa SE 1mph /  1.6km/h 3mph /  4.8km/h 83% 0.00in /  0mm 0 W/m2
00:40 68.7 °F /  20.4 °C 63.3 °F /  17.4 °C 30.10in /  1019.2hPa Calm   3mph /  4.8km/h 83% 0.00in /  0mm 0 W/m2
00:50 68.4 °F /  20.2 °C 63.3 °F /  17.4 °C 30.10in /  1019.2hPa Calm   2mph /  3.2km/h 84% 0.00in /  0mm 0 W/m2
01:00 68.2 °F /  20.1 °C 63.2 °F /  17.3 °C 30.10in /  1019.2hPa WSW 1mph /  1.6km/h 2mph /  3.2km/h 84% 0.00in /  0mm 0 W/m2
01:05 68.2 °F /  20.1 °C 63.2 °F /  17.3 °C 30.10in /  1019.2hPa WSW 1mph /  1.6km/h 3mph /  4.8km/h 84% 0.00in /  0mm 0 W/m2
01:10 68 °F /  20 °C 63 °F /  17.2 °C 30.09in /  1018.8hPa West 1mph /  1.6km/h 2mph /  3.2km/h 84% 0.00in /  0mm 0 W/m2
01:15 68 °F /  20 °C 63 °F /  17.2 °C 30.09in /  1018.8hPa West 1mph /  1.6km/h 2mph /  3.2km/h 84% 0.00in /  0mm 0 W/m2
01:20 67.8 °F /  19.9 °C 62.8 °F /  17.1 °C 30.09in /  1018.8hPa WSW 2mph /  3.2km/h 3mph /  4.8km/h 84% 0.00in /  0mm 0 W/m2
01:25 67.8 °F /  19.9 °C 62.8 °F /  17.1 °C 30.09in /  1018.8hPa SW 2mph /  3.2km/h 3mph /  4.8km/h 84% 0.00in /  0mm 0 W/m2
01:30 67.6 °F /  19.8 °C 63 °F /  17.2 °C 30.09in /  1018.8hPa SW 1mph /  1.6km/h 2mph /  3.2km/h 85% 0.00in /  0mm 0 W/m2
01:35 67.6 °F /  19.8 °C 63 °F /  17.2 °C 30.09in /  1018.8hPa SW 2mph /  3.2km/h 3mph /  4.8km/h 85% 0.00in /  0mm 0 W/m2
01:40 67.5 °F /  19.7 °C 62.8 °F /  17.1 °C 30.09in /  1018.8hPa SW 1mph /  1.6km/h 3mph /  4.8km/h 85% 0.00in /  0mm 0 W/m2
01:50 67.5 °F /  19.7 °C 62.8 °F /  17.1 °C 30.09in /  1018.8hPa WSW 2mph /  3.2km/h 4mph /  6.4km/h 85% 0.00in /  0mm 0 W/m2
01:55 67.5 °F /  19.7 °C 62.8 °F /  17.1 °C 30.09in /  1018.8hPa WSW 2mph /  3.2km/h 4mph /  6.4km/h 85% 0.00in /  0mm 0 W/m2
02:05 67.3 °F /  19.6 °C 62.9 °F /  17.2 °C 30.09in /  1018.8hPa West 3mph /  4.8km/h 6mph /  9.7km/h 86% 0.00in /  0mm 0 W/m2
02:10 67.6 °F /  19.8 °C 63.3 °F /  17.4 °C 30.09in /  1018.8hPa WSW 2mph /  3.2km/h 4mph /  6.4km/h 86% 0.00in /  0mm 0 W/m2
02:15 67.6 °F /  19.8 °C 63 °F /  17.2 °C 30.09in /  1018.8hPa SW 2mph /  3.2km/h 3mph /  4.8km/h 85% 0.00in /  0mm 0 W/m2
02:20 67.6 °F /  19.8 °C 63.3 °F /  17.4 °C 30.09in /  1018.8hPa SW 3mph /  4.8km/h 4mph /  6.4km/h 86% 0.00in /  0mm 0 W/m2
02:25 67.6 °F /  19.8 °C 63.3 °F /  17.4 °C 30.09in /  1018.8hPa WSW 2mph /  3.2km/h 4mph /  6.4km/h 86% 0.00in /  0mm 0 W/m2
02:30 67.6 °F /  19.8 °C 64 °F /  17.8 °C 30.09in /  1018.8hPa WSW 2mph /  3.2km/h 5mph /  8km/h 88% 0.00in /  0mm 0 W/m2
02:35 67.8 °F /  19.9 °C 64.1 °F /  17.8 °C 30.09in /  1018.8hPa West 3mph /  4.8km/h 6mph /  9.7km/h 88% 0.00in /  0mm 0 W/m2
02:40 68 °F /  20 °C 64.6 °F /  18.1 °C 30.09in /  1018.8hPa WSW 2mph /  3.2km/h 5mph /  8km/h 89% 0.00in /  0mm 0 W/m2
02:45 68.2 °F /  20.1 °C 64.8 °F /  18.2 °C 30.09in /  1018.8hPa WSW 1mph /  1.6km/h 3mph /  4.8km/h 89% 0.00in /  0mm 0 W/m2
02:50 68.2 °F /  20.1 °C 64.5 °F /  18.1 °C 30.09in /  1018.8hPa Calm   2mph /  3.2km/h 88% 0.00in /  0mm 0 W/m2
02:55 68.2 °F /  20.1 °C 64.5 °F /  18.1 °C 30.09in /  1018.8hPa Calm     88% 0.00in /  0mm 0 W/m2
03:00 68.2 °F /  20.1 °C 64.5 °F /  18.1 °C 30.09in /  1018.8hPa SW 1mph /  1.6km/h 2mph /  3.2km/h 88% 0.00in /  0mm 0 W/m2
03:05 68.2 °F /  20.1 °C 64.5 °F /  18.1 °C 30.09in /  1018.8hPa Calm   2mph /  3.2km/h 88% 0.00in /  0mm 0 W/m2
03:10 68.4 °F /  20.2 °C 64 °F /  17.8 °C 30.09in /  1018.8hPa Calm   2mph /  3.2km/h 86% 0.00in /  0mm 0 W/m2
03:15 68.4 °F /  20.2 °C 64 °F /  17.8 °C 30.09in /  1018.8hPa Calm   2mph /  3.2km/h 86% 0.00in /  0mm 0 W/m2
03:20 68.2 °F /  20.1 °C 63.8 °F /  17.7 °C 30.09in /  1018.8hPa Calm   1mph /  1.6km/h 86% 0.00in /  0mm 0 W/m2
03:25 68.2 °F /  20.1 °C 63.8 °F /  17.7 °C 30.09in /  1018.8hPa Calm     86% 0.00in /  0mm 0 W/m2
03:30 68.3 °F /  20.2 °C 64 °F /  17.8 °C 30.09in /  1018.8hPa Calm   2mph /  3.2km/h 86% 0.00in /  0mm 0 W/m2
03:40 68.4 °F /  20.2 °C 63.7 °F /  17.6 °C 30.09in /  1018.8hPa South 1mph /  1.6km/h 3mph /  4.8km/h 85% 0.00in /  0mm 0 W/m2
03:50 68.2 °F /  20.1 °C 63.8 °F /  17.7 °C 30.09in /  1018.8hPa WSW 1mph /  1.6km/h 2mph /  3.2km/h 86% 0.00in /  0mm 0 W/m2
03:55 68 °F /  20 °C 63.7 °F /  17.6 °C 30.09in /  1018.8hPa SW 2mph /  3.2km/h 4mph /  6.4km/h 86% 0.00in /  0mm 0 W/m2
04:00 68 °F /  20 °C 64.3 °F /  17.9 °C 30.09in /  1018.8hPa SW 2mph /  3.2km/h 5mph /  8km/h 88% 0.00in /  0mm 0 W/m2
04:05 67.8 °F /  19.9 °C 64.5 °F /  18.1 °C 30.09in /  1018.8hPa WSW 3mph /  4.8km/h 5mph /  8km/h 89% 0.00in /  0mm 0 W/m2
04:10 68 °F /  20 °C 64.6 °F /  18.1 °C 30.09in /  1018.8hPa WSW 3mph /  4.8km/h 5mph /  8km/h 89% 0.00in /  0mm 0 W/m2
04:20 68 °F /  20 °C 65 °F /  18.3 °C 30.09in /  1018.8hPa SW 1mph /  1.6km/h 3mph /  4.8km/h 90% 0.00in /  0mm 0 W/m2
04:25 68 °F /  20 °C 65 °F /  18.3 °C 30.10in /  1019.2hPa Calm   2mph /  3.2km/h 90% 0.00in /  0mm 0 W/m2
04:30 68 °F /  20 °C 65 °F /  18.3 °C 30.10in /  1019.2hPa Calm   1mph /  1.6km/h 90% 0.00in /  0mm 0 W/m2
04:35 68 °F /  20 °C 65 °F /  18.3 °C 30.10in /  1019.2hPa SSW 1mph /  1.6km/h 2mph /  3.2km/h 90% 0.00in /  0mm 0 W/m2
04:40 68 °F /  20 °C 65 °F /  18.3 °C 30.10in /  1019.2hPa SSW 2mph /  3.2km/h 3mph /  4.8km/h 90% 0.00in /  0mm 0 W/m2
04:45 68 °F /  20 °C 65 °F /  18.3 °C 30.10in /  1019.2hPa Calm   2mph /  3.2km/h 90% 0.00in /  0mm 0 W/m2
04:50 68 °F /  20 °C 65 °F /  18.3 °C 30.10in /  1019.2hPa Calm   1mph /  1.6km/h 90% 0.00in /  0mm 0 W/m2
04:55 68 °F /  20 °C 64.9 °F /  18.3 °C 30.10in /  1019.2hPa NW 1mph /  1.6km/h 2mph /  3.2km/h 90% 0.00in /  0mm 0 W/m2
05:00 67.8 °F /  19.9 °C 64.8 °F /  18.2 °C 30.10in /  1019.2hPa Calm   2mph /  3.2km/h 90% 0.00in /  0mm 0 W/m2
05:05 67.6 °F /  19.8 °C 64.6 °F /  18.1 °C 30.10in /  1019.2hPa SW 1mph /  1.6km/h 2mph /  3.2km/h 90% 0.00in /  0mm 0 W/m2
05:10 67.6 °F /  19.8 °C 64.6 °F /  18.1 °C 30.11in /  1019.5hPa WSW 1mph /  1.6km/h 3mph /  4.8km/h 90% 0.00in /  0mm 0 W/m2
05:15 67.5 °F /  19.7 °C 64.7 °F /  18.2 °C 30.11in /  1019.5hPa WSW 2mph /  3.2km/h 5mph /  8km/h 91% 0.00in /  0mm 0 W/m2
05:20 67.3 °F /  19.6 °C 65.2 °F /  18.4 °C 30.10in /  1019.2hPa WSW 1mph /  1.6km/h 4mph /  6.4km/h 93% 0.00in /  0mm 0 W/m2
05:30 66.9 °F /  19.4 °C 64.2 °F /  17.9 °C 30.10in /  1019.2hPa West 1mph /  1.6km/h 2mph /  3.2km/h 91% 0.00in /  0mm 2 W/m2
05:35 66.7 °F /  19.3 °C 64.7 °F /  18.2 °C 30.11in /  1019.5hPa WSW 2mph /  3.2km/h 3mph /  4.8km/h 93% 0.00in /  0mm 4 W/m2
05:40 66.7 °F /  19.3 °C 64.7 °F /  18.2 °C 30.11in /  1019.5hPa WSW 2mph /  3.2km/h 3mph /  4.8km/h 93% 0.00in /  0mm 6 W/m2
05:45 66.6 °F /  19.2 °C 64.5 °F /  18.1 °C 30.11in /  1019.5hPa Calm   3mph /  4.8km/h 93% 0.00in /  0mm 8 W/m2
05:50 66.6 °F /  19.2 °C 64.5 °F /  18.1 °C 30.11in /  1019.5hPa Calm   1mph /  1.6km/h 93% 0.00in /  0mm 10 W/m2
05:55 66.4 °F /  19.1 °C 64.6 °F /  18.1 °C 30.11in /  1019.5hPa SE 1mph /  1.6km/h 3mph /  4.8km/h 94% 0.00in /  0mm 13 W/m2
06:00 66.2 °F /  19 °C 64.4 °F /  18 °C 30.11in /  1019.5hPa ESE 2mph /  3.2km/h 4mph /  6.4km/h 94% 0.00in /  0mm 16 W/m2
06:05 66 °F /  18.9 °C 63.9 °F /  17.7 °C 30.11in /  1019.5hPa SSE 1mph /  1.6km/h 2mph /  3.2km/h 93% 0.00in /  0mm 20 W/m2
06:10 66 °F /  18.9 °C 64.2 °F /  17.9 °C 30.12in /  1019.9hPa Calm   1mph /  1.6km/h 94% 0.00in /  0mm 24 W/m2
06:15 66 °F /  18.9 °C 64.2 °F /  17.9 °C 30.12in /  1019.9hPa WSW 1mph /  1.6km/h 2mph /  3.2km/h 94% 0.00in /  0mm 31 W/m2
06:20 65.8 °F /  18.8 °C 64.1 °F /  17.8 °C 30.12in /  1019.9hPa Calm   2mph /  3.2km/h 94% 0.00in /  0mm 38 W/m2
06:25 66 °F /  18.9 °C 64.3 °F /  17.9 °C 30.12in /  1019.9hPa Calm   2mph /  3.2km/h 94% 0.00in /  0mm 40 W/m2
06:30 66.2 °F /  19 °C 64.4 °F /  18 °C 30.12in /  1019.9hPa Calm   2mph /  3.2km/h 94% 0.00in /  0mm 46 W/m2
06:35 66.4 °F /  19.1 °C 64.6 °F /  18.1 °C 30.12in /  1019.9hPa Calm     94% 0.00in /  0mm 47 W/m2
06:40 66.6 °F /  19.2 °C 64.8 °F /  18.2 °C 30.12in /  1019.9hPa Calm   1mph /  1.6km/h 94% 0.00in /  0mm 49 W/m2
06:45 66.6 °F /  19.2 °C 64.8 °F /  18.2 °C 30.12in /  1019.9hPa Calm   2mph /  3.2km/h 94% 0.00in /  0mm 49 W/m2
06:50 66.6 °F /  19.2 °C 64.8 °F /  18.2 °C 30.12in /  1019.9hPa Calm     94% 0.00in /  0mm 54 W/m2
06:55 66.7 °F /  19.3 °C 65 °F /  18.3 °C 30.12in /  1019.9hPa Calm   1mph /  1.6km/h 94% 0.00in /  0mm 59 W/m2
07:00 66.9 °F /  19.4 °C 65.1 °F /  18.4 °C 30.12in /  1019.9hPa ENE 2mph /  3.2km/h 3mph /  4.8km/h 94% 0.00in /  0mm 64 W/m2
07:10 67.1 °F /  19.5 °C 65 °F /  18.3 °C 30.12in /  1019.9hPa East 1mph /  1.6km/h 2mph /  3.2km/h 93% 0.00in /  0mm 76 W/m2
07:15 67.3 °F /  19.6 °C 65.2 °F /  18.4 °C 30.12in /  1019.9hPa SE 1mph /  1.6km/h 2mph /  3.2km/h 93% 0.00in /  0mm 91 W/m2
07:20 67.6 °F /  19.8 °C 65.5 °F /  18.6 °C 30.12in /  1019.9hPa SE 1mph /  1.6km/h 2mph /  3.2km/h 93% 0.00in /  0mm 107 W/m2
07:25 67.8 °F /  19.9 °C 65.7 °F /  18.7 °C 30.12in /  1019.9hPa ENE 1mph /  1.6km/h 3mph /  4.8km/h 93% 0.00in /  0mm 118 W/m2
07:30 68 °F /  20 °C 65.9 °F /  18.8 °C 30.12in /  1019.9hPa ENE 1mph /  1.6km/h 2mph /  3.2km/h 93% 0.00in /  0mm 123 W/m2
07:35 68.2 °F /  20.1 °C 65.5 °F /  18.6 °C 30.12in /  1019.9hPa Calm   2mph /  3.2km/h 91% 0.00in /  0mm 138 W/m2
07:40 68.5 °F /  20.3 °C 65.8 °F /  18.8 °C 30.12in /  1019.9hPa Calm   1mph /  1.6km/h 91% 0.00in /  0mm 150 W/m2
07:45 68.7 °F /  20.4 °C 65.7 °F /  18.7 °C 30.12in /  1019.9hPa Calm   2mph /  3.2km/h 90% 0.00in /  0mm 132 W/m2
07:50 68.9 °F /  20.5 °C 65.9 °F /  18.8 °C 30.12in /  1019.9hPa East 1mph /  1.6km/h 2mph /  3.2km/h 90% 0.00in /  0mm 147 W/m2
07:55 69.1 °F /  20.6 °C 65.7 °F /  18.7 °C 30.12in /  1019.9hPa South 1mph /  1.6km/h 2mph /  3.2km/h 89% 0.00in /  0mm 160 W/m2
08:00 69.4 °F /  20.8 °C 66.1 °F /  18.9 °C 30.12in /  1019.9hPa Calm   2mph /  3.2km/h 89% 0.00in /  0mm 182 W/m2
08:05 69.6 °F /  20.9 °C 66.2 °F /  19 °C 30.12in /  1019.9hPa SE 1mph /  1.6km/h 2mph /  3.2km/h 89% 0.00in /  0mm 164 W/m2
08:10 69.8 °F /  21 °C 66.1 °F /  18.9 °C 30.12in /  1019.9hPa Calm   2mph /  3.2km/h 88% 0.00in /  0mm 174 W/m2
08:15 70 °F /  21.1 °C 66.3 °F /  19.1 °C 30.12in /  1019.9hPa Calm   2mph /  3.2km/h 88% 0.00in /  0mm 161 W/m2
08:20 70.3 °F /  21.3 °C 66.9 °F /  19.4 °C 30.12in /  1019.9hPa Calm   3mph /  4.8km/h 89% 0.00in /  0mm 181 W/m2
08:25 70.7 °F /  21.5 °C 67 °F /  19.4 °C 30.12in /  1019.9hPa ENE 2mph /  3.2km/h 3mph /  4.8km/h 88% 0.00in /  0mm 199 W/m2
08:30 70.9 °F /  21.6 °C 66.5 °F /  19.2 °C 30.12in /  1019.9hPa NE 1mph /  1.6km/h 4mph /  6.4km/h 86% 0.00in /  0mm 229 W/m2
08:45 71.4 °F /  21.9 °C 66.7 °F /  19.3 °C 30.12in /  1019.9hPa South 1mph /  1.6km/h 3mph /  4.8km/h 85% 0.00in /  0mm 241 W/m2
08:50 71.6 °F /  22 °C 66.9 °F /  19.4 °C 30.12in /  1019.9hPa SW 1mph /  1.6km/h 3mph /  4.8km/h 85% 0.00in /  0mm 241 W/m2
08:55 71.8 °F /  22.1 °C 67 °F /  19.4 °C 30.12in /  1019.9hPa WSW 1mph /  1.6km/h 3mph /  4.8km/h 85% 0.00in /  0mm 247 W/m2
09:05 72.3 °F /  22.4 °C 67.2 °F /  19.6 °C 30.12in /  1019.9hPa SSW 2mph /  3.2km/h 3mph /  4.8km/h 84% 0.00in /  0mm 289 W/m2
09:10 72.7 °F /  22.6 °C 67.2 °F /  19.6 °C 30.12in /  1019.9hPa South 1mph /  1.6km/h 4mph /  6.4km/h 83% 0.00in /  0mm 295 W/m2
09:15 72.9 °F /  22.7 °C 67.4 °F /  19.7 °C 30.12in /  1019.9hPa Calm   3mph /  4.8km/h 83% 0.00in /  0mm 301 W/m2
09:20 73 °F /  22.8 °C 67.6 °F /  19.8 °C 30.12in /  1019.9hPa NE 1mph /  1.6km/h 3mph /  4.8km/h 83% 0.00in /  0mm 319 W/m2
09:25 73.2 °F /  22.9 °C 67 °F /  19.4 °C 30.12in /  1019.9hPa ESE 2mph /  3.2km/h 3mph /  4.8km/h 81% 0.00in /  0mm 349 W/m2
09:30 73.6 °F /  23.1 °C 67 °F /  19.4 °C 30.12in /  1019.9hPa SSE 1mph /  1.6km/h 2mph /  3.2km/h 80% 0.00in /  0mm 333 W/m2
09:35 73.9 °F /  23.3 °C 66.6 °F /  19.2 °C 30.12in /  1019.9hPa East 2mph /  3.2km/h 4mph /  6.4km/h 78% 0.00in /  0mm 298 W/m2
09:40 74.5 °F /  23.6 °C 67.6 °F /  19.8 °C 30.12in /  1019.9hPa NE 1mph /  1.6km/h 5mph /  8km/h 79% 0.00in /  0mm 686 W/m2
09:45 75.6 °F /  24.2 °C 68.2 °F /  20.1 °C 30.12in /  1019.9hPa North 1mph /  1.6km/h 5mph /  8km/h 78% 0.00in /  0mm 698 W/m2
09:50 76.6 °F /  24.8 °C 68.1 °F /  20.1 °C 30.12in /  1019.9hPa WNW 1mph /  1.6km/h 4mph /  6.4km/h 75% 0.00in /  0mm 710 W/m2
09:55 76.5 °F /  24.7 °C 67.6 °F /  19.8 °C 30.12in /  1019.9hPa ENE 2mph /  3.2km/h 5mph /  8km/h 74% 0.00in /  0mm 722 W/m2
10:00 77.4 °F /  25.2 °C 68 °F /  20 °C 30.11in /  1019.5hPa SE 2mph /  3.2km/h 5mph /  8km/h 73% 0.00in /  0mm 733 W/m2
10:10 77.2 °F /  25.1 °C 67.9 °F /  19.9 °C 30.11in /  1019.5hPa SE 1mph /  1.6km/h 7mph /  11.3km/h 73% 0.00in /  0mm 586 W/m2
10:15 77.6 °F /  25.3 °C 68.6 °F /  20.3 °C 30.11in /  1019.5hPa WNW 3mph /  4.8km/h 7mph /  11.3km/h 74% 0.00in /  0mm 600 W/m2
10:20 78.3 °F /  25.7 °C 68.5 °F /  20.3 °C 30.11in /  1019.5hPa WNW 1mph /  1.6km/h 5mph /  8km/h 72% 0.00in /  0mm 557 W/m2
10:25 78.3 °F /  25.7 °C 68.5 °F /  20.3 °C 30.11in /  1019.5hPa SW 2mph /  3.2km/h 5mph /  8km/h 72% 0.00in /  0mm 510 W/m2
10:35 79.2 °F /  26.2 °C 68.5 °F /  20.3 °C 30.11in /  1019.5hPa WSW 2mph /  3.2km/h 7mph /  11.3km/h 70% 0.00in /  0mm 436 W/m2
10:40 79.3 °F /  26.3 °C 68.7 °F /  20.4 °C 30.11in /  1019.5hPa WSW 1mph /  1.6km/h 5mph /  8km/h 70% 0.00in /  0mm 360 W/m2
10:45 79.2 °F /  26.2 °C 69.4 °F /  20.8 °C 30.11in /  1019.5hPa Calm   5mph /  8km/h 72% 0.00in /  0mm 362 W/m2
10:55 78.8 °F /  26 °C 67.7 °F /  19.8 °C 30.11in /  1019.5hPa WNW 1mph /  1.6km/h 4mph /  6.4km/h 69% 0.00in /  0mm 310 W/m2
11:05 78.6 °F /  25.9 °C 69.2 °F /  20.7 °C 30.11in /  1019.5hPa WNW 1mph /  1.6km/h 6mph /  9.7km/h 73% 0.00in /  0mm 216 W/m2
11:10 78.4 °F /  25.8 °C 69.1 °F /  20.6 °C 30.11in /  1019.5hPa WSW 2mph /  3.2km/h 6mph /  9.7km/h 73% 0.00in /  0mm 166 W/m2
11:15 78.1 °F /  25.6 °C 68.7 °F /  20.4 °C 30.11in /  1019.5hPa SW 3mph /  4.8km/h 7mph /  11.3km/h 73% 0.00in /  0mm 136 W/m2
11:20 77.9 °F /  25.5 °C 68.9 °F /  20.5 °C 30.10in /  1019.2hPa SW 2mph /  3.2km/h 4mph /  6.4km/h 74% 0.00in /  0mm 143 W/m2
11:25 77.9 °F /  25.5 °C 69 °F /  20.6 °C 30.10in /  1019.2hPa Calm   3mph /  4.8km/h 74% 0.00in /  0mm 160 W/m2
11:30 78.1 °F /  25.6 °C 68.7 °F /  20.4 °C 30.11in /  1019.5hPa WSW 3mph /  4.8km/h 5mph /  8km/h 73% 0.00in /  0mm 166 W/m2
11:35 78.1 °F /  25.6 °C 69.1 °F /  20.6 °C 30.10in /  1019.2hPa WSW 2mph /  3.2km/h 5mph /  8km/h 74% 0.00in /  0mm 194 W/m2
11:40 78.1 °F /  25.6 °C 69.1 °F /  20.6 °C 30.10in /  1019.2hPa WSW 2mph /  3.2km/h 5mph /  8km/h 74% 0.00in /  0mm 293 W/m2
11:45 78.6 °F /  25.9 °C 69.7 °F /  20.9 °C 30.10in /  1019.2hPa SW 3mph /  4.8km/h 6mph /  9.7km/h 74% 0.00in /  0mm 587 W/m2
11:50 79.4 °F /  26.3 °C 70 °F /  21.1 °C 30.10in /  1019.2hPa SSW 3mph /  4.8km/h 9mph /  14.5km/h 73% 0.00in /  0mm 590 W/m2
11:55 80.1 °F /  26.7 °C 70.2 °F /  21.2 °C 30.10in /  1019.2hPa SW 3mph /  4.8km/h 8mph /  12.9km/h 72% 0.00in /  0mm 832 W/m2
12:00 80.4 °F /  26.9 °C 69.7 °F /  20.9 °C 30.10in /  1019.2hPa WSW 1mph /  1.6km/h 8mph /  12.9km/h 70% 0.00in /  0mm 813 W/m2
Knjazevac, Serbia
Compliments of Weather Underground - 2 mb